sensor_id;sensor_type;location;lat;lon;timestamp;P1;durP1;ratioP1;P2;durP2;ratioP2
32760;SDS011;19126;47.472;7.850;2023-07-24T00:00:33;21.17;;;9.65;;
32760;SDS011;19126;47.472;7.850;2023-07-24T00:03:02;17.33;;;9.70;;
32760;SDS011;19126;47.472;7.850;2023-07-24T00:05:30;20.38;;;10.23;;
32760;SDS011;19126;47.472;7.850;2023-07-24T00:07:57;16.95;;;9.02;;
32760;SDS011;19126;47.472;7.850;2023-07-24T00:10:24;21.38;;;10.63;;
32760;SDS011;19126;47.472;7.850;2023-07-24T00:12:52;20.23;;;10.18;;
32760;SDS011;19126;47.472;7.850;2023-07-24T00:15:19;16.65;;;9.77;;
32760;SDS011;19126;47.472;7.850;2023-07-24T00:17:47;21.70;;;10.20;;
32760;SDS011;19126;47.472;7.850;2023-07-24T00:20:15;16.08;;;9.88;;
32760;SDS011;19126;47.472;7.850;2023-07-24T00:22:43;18.38;;;10.73;;
32760;SDS011;19126;47.472;7.850;2023-07-24T00:25:10;19.95;;;10.18;;
32760;SDS011;19126;47.472;7.850;2023-07-24T00:27:37;15.05;;;10.85;;
32760;SDS011;19126;47.472;7.850;2023-07-24T00:30:05;16.45;;;10.68;;
32760;SDS011;19126;47.472;7.850;2023-07-24T00:32:34;19.15;;;10.93;;
32760;SDS011;19126;47.472;7.850;2023-07-24T00:35:02;17.73;;;10.32;;
32760;SDS011;19126;47.472;7.850;2023-07-24T00:37:31;17.80;;;10.73;;
32760;SDS011;19126;47.472;7.850;2023-07-24T00:39:58;20.52;;;10.65;;
32760;SDS011;19126;47.472;7.850;2023-07-24T00:42:26;16.67;;;10.60;;
32760;SDS011;19126;47.472;7.850;2023-07-24T00:44:53;23.45;;;10.48;;
32760;SDS011;19126;47.472;7.850;2023-07-24T00:47:21;16.98;;;10.20;;
32760;SDS011;19126;47.472;7.850;2023-07-24T00:49:48;19.30;;;11.40;;
32760;SDS011;19126;47.472;7.850;2023-07-24T00:52:16;22.80;;;11.43;;
32760;SDS011;19126;47.472;7.850;2023-07-24T00:54:46;26.45;;;11.68;;
32760;SDS011;19126;47.472;7.850;2023-07-24T00:57:14;22.35;;;11.15;;
32760;SDS011;19126;47.472;7.850;2023-07-24T00:59:43;19.80;;;11.45;;
32760;SDS011;19126;47.472;7.850;2023-07-24T01:02:11;21.33;;;11.57;;
32760;SDS011;19126;47.472;7.850;2023-07-24T01:04:39;20.10;;;11.52;;
32760;SDS011;19126;47.472;7.850;2023-07-24T01:07:06;15.75;;;10.52;;
32760;SDS011;19126;47.472;7.850;2023-07-24T01:09:34;19.75;;;11.95;;
32760;SDS011;19126;47.472;7.850;2023-07-24T01:12:04;18.95;;;11.13;;
32760;SDS011;19126;47.472;7.850;2023-07-24T01:14:41;19.45;;;10.40;;
32760;SDS011;19126;47.472;7.850;2023-07-24T01:17:14;17.55;;;10.27;;
32760;SDS011;19126;47.472;7.850;2023-07-24T01:19:47;15.48;;;9.40;;
32760;SDS011;19126;47.472;7.850;2023-07-24T01:22:20;18.43;;;10.80;;
32760;SDS011;19126;47.472;7.850;2023-07-24T01:25:09;18.10;;;10.55;;
32760;SDS011;19126;47.472;7.850;2023-07-24T01:27:46;16.50;;;10.27;;
32760;SDS011;19126;47.472;7.850;2023-07-24T01:30:16;16.63;;;10.70;;
32760;SDS011;19126;47.472;7.850;2023-07-24T01:32:45;18.63;;;11.43;;
32760;SDS011;19126;47.472;7.850;2023-07-24T01:35:13;17.55;;;11.18;;
32760;SDS011;19126;47.472;7.850;2023-07-24T01:37:41;20.10;;;10.57;;
32760;SDS011;19126;47.472;7.850;2023-07-24T01:40:10;17.83;;;10.77;;
32760;SDS011;19126;47.472;7.850;2023-07-24T01:42:38;17.13;;;10.98;;
32760;SDS011;19126;47.472;7.850;2023-07-24T01:45:08;24.17;;;10.52;;
32760;SDS011;19126;47.472;7.850;2023-07-24T01:47:37;16.08;;;9.93;;
32760;SDS011;19126;47.472;7.850;2023-07-24T01:50:05;24.40;;;11.50;;
32760;SDS011;19126;47.472;7.850;2023-07-24T01:52:33;19.05;;;10.55;;
32760;SDS011;19126;47.472;7.850;2023-07-24T01:55:00;18.40;;;9.93;;
32760;SDS011;19126;47.472;7.850;2023-07-24T01:57:28;13.75;;;9.73;;
32760;SDS011;19126;47.472;7.850;2023-07-24T01:59:55;16.33;;;11.05;;
32760;SDS011;19126;47.472;7.850;2023-07-24T02:02:24;17.15;;;10.45;;
32760;SDS011;19126;47.472;7.850;2023-07-24T02:04:51;15.20;;;10.68;;
32760;SDS011;19126;47.472;7.850;2023-07-24T02:07:18;20.88;;;10.75;;
32760;SDS011;19126;47.472;7.850;2023-07-24T02:09:46;17.33;;;10.73;;
32760;SDS011;19126;47.472;7.850;2023-07-24T02:12:13;22.13;;;10.00;;
32760;SDS011;19126;47.472;7.850;2023-07-24T02:14:40;16.35;;;10.10;;
32760;SDS011;19126;47.472;7.850;2023-07-24T02:17:07;19.80;;;11.80;;
32760;SDS011;19126;47.472;7.850;2023-07-24T02:19:36;15.45;;;9.98;;
32760;SDS011;19126;47.472;7.850;2023-07-24T02:22:03;18.25;;;10.23;;
32760;SDS011;19126;47.472;7.850;2023-07-24T02:24:31;15.23;;;10.25;;
32760;SDS011;19126;47.472;7.850;2023-07-24T02:26:58;20.00;;;10.70;;
32760;SDS011;19126;47.472;7.850;2023-07-24T02:29:27;18.05;;;11.07;;
32760;SDS011;19126;47.472;7.850;2023-07-24T02:31:54;16.08;;;10.57;;
32760;SDS011;19126;47.472;7.850;2023-07-24T02:34:21;20.35;;;11.00;;
32760;SDS011;19126;47.472;7.850;2023-07-24T02:36:53;18.55;;;10.32;;
32760;SDS011;19126;47.472;7.850;2023-07-24T02:39:20;18.60;;;11.30;;
32760;SDS011;19126;47.472;7.850;2023-07-24T02:41:48;18.58;;;10.52;;
32760;SDS011;19126;47.472;7.850;2023-07-24T02:44:15;16.65;;;9.23;;
32760;SDS011;19126;47.472;7.850;2023-07-24T02:46:43;15.48;;;10.18;;
32760;SDS011;19126;47.472;7.850;2023-07-24T02:49:10;16.00;;;9.82;;
32760;SDS011;19126;47.472;7.850;2023-07-24T02:51:37;18.75;;;9.38;;
32760;SDS011;19126;47.472;7.850;2023-07-24T02:54:06;16.38;;;10.60;;
32760;SDS011;19126;47.472;7.850;2023-07-24T02:56:33;16.50;;;11.00;;
32760;SDS011;19126;47.472;7.850;2023-07-24T02:59:00;16.88;;;9.40;;
32760;SDS011;19126;47.472;7.850;2023-07-24T03:01:28;15.75;;;10.38;;
32760;SDS011;19126;47.472;7.850;2023-07-24T03:03:55;16.30;;;10.65;;
32760;SDS011;19126;47.472;7.850;2023-07-24T03:06:22;15.68;;;9.13;;
32760;SDS011;19126;47.472;7.850;2023-07-24T03:08:50;18.65;;;10.75;;
32760;SDS011;19126;47.472;7.850;2023-07-24T03:11:18;17.95;;;10.75;;
32760;SDS011;19126;47.472;7.850;2023-07-24T03:13:46;18.85;;;10.35;;
32760;SDS011;19126;47.472;7.850;2023-07-24T03:16:13;17.52;;;11.07;;
32760;SDS011;19126;47.472;7.850;2023-07-24T03:18:42;21.50;;;10.73;;
32760;SDS011;19126;47.472;7.850;2023-07-24T03:21:09;16.35;;;10.90;;
32760;SDS011;19126;47.472;7.850;2023-07-24T03:23:37;15.80;;;10.57;;
32760;SDS011;19126;47.472;7.850;2023-07-24T03:26:04;21.73;;;11.75;;
32760;SDS011;19126;47.472;7.850;2023-07-24T03:28:33;17.70;;;11.13;;
32760;SDS011;19126;47.472;7.850;2023-07-24T03:31:00;18.13;;;10.52;;
32760;SDS011;19126;47.472;7.850;2023-07-24T03:33:27;17.65;;;11.23;;
32760;SDS011;19126;47.472;7.850;2023-07-24T03:35:55;17.55;;;11.63;;
32760;SDS011;19126;47.472;7.850;2023-07-24T03:38:22;18.63;;;11.02;;
32760;SDS011;19126;47.472;7.850;2023-07-24T03:40:49;16.25;;;10.88;;
32760;SDS011;19126;47.472;7.850;2023-07-24T03:43:17;17.63;;;10.50;;
32760;SDS011;19126;47.472;7.850;2023-07-24T03:45:45;17.75;;;10.38;;
32760;SDS011;19126;47.472;7.850;2023-07-24T03:48:13;23.23;;;11.35;;
32760;SDS011;19126;47.472;7.850;2023-07-24T03:50:40;19.90;;;11.63;;
32760;SDS011;19126;47.472;7.850;2023-07-24T03:53:07;16.70;;;11.35;;
32760;SDS011;19126;47.472;7.850;2023-07-24T03:55:35;15.80;;;10.35;;
32760;SDS011;19126;47.472;7.850;2023-07-24T03:58:02;18.10;;;11.13;;
32760;SDS011;19126;47.472;7.850;2023-07-24T04:00:30;17.65;;;11.10;;
32760;SDS011;19126;47.472;7.850;2023-07-24T04:02:59;19.85;;;11.05;;
32760;SDS011;19126;47.472;7.850;2023-07-24T04:05:26;22.60;;;11.35;;
32760;SDS011;19126;47.472;7.850;2023-07-24T04:07:54;19.70;;;11.20;;
32760;SDS011;19126;47.472;7.850;2023-07-24T04:10:21;19.02;;;11.73;;
32760;SDS011;19126;47.472;7.850;2023-07-24T04:12:49;33.30;;;12.13;;
32760;SDS011;19126;47.472;7.850;2023-07-24T04:15:16;25.30;;;11.35;;
32760;SDS011;19126;47.472;7.850;2023-07-24T04:17:43;28.15;;;12.68;;
32760;SDS011;19126;47.472;7.850;2023-07-24T04:20:12;19.13;;;11.88;;
32760;SDS011;19126;47.472;7.850;2023-07-24T04:22:39;23.15;;;11.57;;
32760;SDS011;19126;47.472;7.850;2023-07-24T04:25:07;27.67;;;13.23;;
32760;SDS011;19126;47.472;7.850;2023-07-24T04:27:35;21.67;;;11.25;;
32760;SDS011;19126;47.472;7.850;2023-07-24T04:30:02;19.98;;;12.15;;
32760;SDS011;19126;47.472;7.850;2023-07-24T04:32:31;26.80;;;12.77;;
32760;SDS011;19126;47.472;7.850;2023-07-24T04:34:58;22.00;;;11.30;;
32760;SDS011;19126;47.472;7.850;2023-07-24T04:37:27;19.17;;;10.68;;
32760;SDS011;19126;47.472;7.850;2023-07-24T04:39:54;14.60;;;8.40;;
32760;SDS011;19126;47.472;7.850;2023-07-24T04:42:21;16.30;;;6.45;;
32760;SDS011;19126;47.472;7.850;2023-07-24T04:44:49;12.20;;;6.88;;
32760;SDS011;19126;47.472;7.850;2023-07-24T04:47:16;14.68;;;7.43;;
32760;SDS011;19126;47.472;7.850;2023-07-24T04:49:44;12.02;;;6.05;;
32760;SDS011;19126;47.472;7.850;2023-07-24T04:52:11;12.02;;;6.70;;
32760;SDS011;19126;47.472;7.850;2023-07-24T04:54:40;15.30;;;6.75;;
32760;SDS011;19126;47.472;7.850;2023-07-24T04:57:08;9.07;;;5.72;;
32760;SDS011;19126;47.472;7.850;2023-07-24T04:59:35;13.20;;;6.90;;
32760;SDS011;19126;47.472;7.850;2023-07-24T05:02:03;9.05;;;6.05;;
32760;SDS011;19126;47.472;7.850;2023-07-24T05:04:30;10.13;;;5.88;;
32760;SDS011;19126;47.472;7.850;2023-07-24T05:06:58;10.98;;;7.15;;
32760;SDS011;19126;47.472;7.850;2023-07-24T05:09:25;11.30;;;6.47;;
32760;SDS011;19126;47.472;7.850;2023-07-24T05:11:54;9.32;;;6.55;;
32760;SDS011;19126;47.472;7.850;2023-07-24T05:14:21;12.35;;;5.72;;
32760;SDS011;19126;47.472;7.850;2023-07-24T05:16:49;12.13;;;5.47;;
32760;SDS011;19126;47.472;7.850;2023-07-24T05:19:16;9.88;;;5.13;;
32760;SDS011;19126;47.472;7.850;2023-07-24T05:21:43;9.75;;;5.28;;
32760;SDS011;19126;47.472;7.850;2023-07-24T05:24:10;7.78;;;5.25;;
32760;SDS011;19126;47.472;7.850;2023-07-24T05:26:38;11.65;;;5.03;;
32760;SDS011;19126;47.472;7.850;2023-07-24T05:29:06;9.98;;;4.60;;
32760;SDS011;19126;47.472;7.850;2023-07-24T05:31:34;8.20;;;4.90;;
32760;SDS011;19126;47.472;7.850;2023-07-24T05:34:01;10.02;;;4.97;;
32760;SDS011;19126;47.472;7.850;2023-07-24T05:36:30;7.32;;;5.20;;
32760;SDS011;19126;47.472;7.850;2023-07-24T05:38:57;6.75;;;4.75;;
32760;SDS011;19126;47.472;7.850;2023-07-24T05:41:25;13.98;;;5.80;;
32760;SDS011;19126;47.472;7.850;2023-07-24T05:43:52;10.52;;;5.07;;
32760;SDS011;19126;47.472;7.850;2023-07-24T05:46:22;6.97;;;5.35;;
32760;SDS011;19126;47.472;7.850;2023-07-24T05:48:49;10.55;;;5.38;;
32760;SDS011;19126;47.472;7.850;2023-07-24T05:51:16;7.78;;;5.07;;
32760;SDS011;19126;47.472;7.850;2023-07-24T05:53:44;11.38;;;5.28;;
32760;SDS011;19126;47.472;7.850;2023-07-24T05:56:11;12.10;;;5.50;;
32760;SDS011;19126;47.472;7.850;2023-07-24T05:58:38;9.05;;;5.85;;
32760;SDS011;19126;47.472;7.850;2023-07-24T06:01:06;6.75;;;5.00;;
32760;SDS011;19126;47.472;7.850;2023-07-24T06:03:36;9.23;;;5.32;;
32760;SDS011;19126;47.472;7.850;2023-07-24T06:06:04;7.80;;;5.80;;
32760;SDS011;19126;47.472;7.850;2023-07-24T06:08:31;10.00;;;5.60;;
32760;SDS011;19126;47.472;7.850;2023-07-24T06:10:59;10.95;;;5.80;;
32760;SDS011;19126;47.472;7.850;2023-07-24T06:13:26;9.55;;;5.70;;
32760;SDS011;19126;47.472;7.850;2023-07-24T06:15:53;10.90;;;5.60;;
32760;SDS011;19126;47.472;7.850;2023-07-24T06:18:21;11.55;;;5.88;;
32760;SDS011;19126;47.472;7.850;2023-07-24T06:20:53;10.52;;;5.93;;
32760;SDS011;19126;47.472;7.850;2023-07-24T06:23:20;10.93;;;6.55;;
32760;SDS011;19126;47.472;7.850;2023-07-24T06:25:48;24.25;;;8.73;;
32760;SDS011;19126;47.472;7.850;2023-07-24T06:28:16;68.72;;;18.55;;
32760;SDS011;19126;47.472;7.850;2023-07-24T06:30:44;28.30;;;12.27;;
32760;SDS011;19126;47.472;7.850;2023-07-24T06:33:11;33.90;;;10.30;;
32760;SDS011;19126;47.472;7.850;2023-07-24T06:35:38;11.57;;;6.22;;
32760;SDS011;19126;47.472;7.850;2023-07-24T06:38:07;13.18;;;7.25;;
32760;SDS011;19126;47.472;7.850;2023-07-24T06:40:34;10.77;;;5.97;;
32760;SDS011;19126;47.472;7.850;2023-07-24T06:43:02;11.57;;;6.25;;
32760;SDS011;19126;47.472;7.850;2023-07-24T06:45:29;10.18;;;6.20;;
32760;SDS011;19126;47.472;7.850;2023-07-24T06:47:56;12.95;;;6.13;;
32760;SDS011;19126;47.472;7.850;2023-07-24T06:50:23;12.63;;;6.28;;
32760;SDS011;19126;47.472;7.850;2023-07-24T06:52:51;10.68;;;6.35;;
32760;SDS011;19126;47.472;7.850;2023-07-24T06:55:20;9.73;;;6.15;;
32760;SDS011;19126;47.472;7.850;2023-07-24T06:57:47;11.48;;;5.68;;
32760;SDS011;19126;47.472;7.850;2023-07-24T07:00:15;11.82;;;6.50;;
32760;SDS011;19126;47.472;7.850;2023-07-24T07:02:43;14.25;;;6.20;;
32760;SDS011;19126;47.472;7.850;2023-07-24T07:05:10;12.27;;;6.65;;
32760;SDS011;19126;47.472;7.850;2023-07-24T07:07:38;10.15;;;6.20;;
32760;SDS011;19126;47.472;7.850;2023-07-24T07:10:05;10.93;;;6.75;;
32760;SDS011;19126;47.472;7.850;2023-07-24T07:12:35;11.32;;;6.57;;
32760;SDS011;19126;47.472;7.850;2023-07-24T07:15:03;10.52;;;6.78;;
32760;SDS011;19126;47.472;7.850;2023-07-24T07:17:31;9.55;;;6.05;;
32760;SDS011;19126;47.472;7.850;2023-07-24T07:19:58;11.05;;;6.28;;
32760;SDS011;19126;47.472;7.850;2023-07-24T07:22:25;10.25;;;6.53;;
32760;SDS011;19126;47.472;7.850;2023-07-24T07:24:53;9.43;;;6.05;;
32760;SDS011;19126;47.472;7.850;2023-07-24T07:27:20;12.52;;;6.32;;
32760;SDS011;19126;47.472;7.850;2023-07-24T07:29:49;9.25;;;6.82;;
32760;SDS011;19126;47.472;7.850;2023-07-24T07:32:16;16.88;;;7.50;;
32760;SDS011;19126;47.472;7.850;2023-07-24T07:34:44;9.98;;;5.75;;
32760;SDS011;19126;47.472;7.850;2023-07-24T07:37:11;11.90;;;6.53;;
32760;SDS011;19126;47.472;7.850;2023-07-24T07:39:38;16.10;;;6.38;;
32760;SDS011;19126;47.472;7.850;2023-07-24T07:42:06;11.05;;;6.50;;
32760;SDS011;19126;47.472;7.850;2023-07-24T07:44:33;11.50;;;6.50;;
32760;SDS011;19126;47.472;7.850;2023-07-24T07:47:02;10.40;;;5.72;;
32760;SDS011;19126;47.472;7.850;2023-07-24T07:49:31;10.65;;;6.38;;
32760;SDS011;19126;47.472;7.850;2023-07-24T07:51:58;16.15;;;7.68;;
32760;SDS011;19126;47.472;7.850;2023-07-24T07:54:25;11.10;;;6.82;;
32760;SDS011;19126;47.472;7.850;2023-07-24T07:56:53;8.75;;;6.28;;
32760;SDS011;19126;47.472;7.850;2023-07-24T07:59:20;9.88;;;6.30;;
32760;SDS011;19126;47.472;7.850;2023-07-24T08:01:48;12.10;;;7.00;;
32760;SDS011;19126;47.472;7.850;2023-07-24T08:04:16;11.90;;;7.13;;
32760;SDS011;19126;47.472;7.850;2023-07-24T08:06:44;10.88;;;7.47;;
32760;SDS011;19126;47.472;7.850;2023-07-24T08:09:11;10.27;;;6.40;;
32760;SDS011;19126;47.472;7.850;2023-07-24T08:11:38;11.45;;;7.38;;
32760;SDS011;19126;47.472;7.850;2023-07-24T08:14:06;11.65;;;7.20;;
32760;SDS011;19126;47.472;7.850;2023-07-24T08:16:33;10.93;;;6.60;;
32760;SDS011;19126;47.472;7.850;2023-07-24T08:19:01;15.02;;;6.50;;
32760;SDS011;19126;47.472;7.850;2023-07-24T08:21:29;8.80;;;6.20;;
32760;SDS011;19126;47.472;7.850;2023-07-24T08:23:56;10.70;;;6.03;;
32760;SDS011;19126;47.472;7.850;2023-07-24T08:26:25;10.35;;;6.20;;
32760;SDS011;19126;47.472;7.850;2023-07-24T08:28:52;11.27;;;5.82;;
32760;SDS011;19126;47.472;7.850;2023-07-24T08:31:20;12.02;;;6.05;;
32760;SDS011;19126;47.472;7.850;2023-07-24T08:33:47;10.27;;;6.47;;
32760;SDS011;19126;47.472;7.850;2023-07-24T08:36:14;10.00;;;6.13;;
32760;SDS011;19126;47.472;7.850;2023-07-24T08:38:43;12.60;;;6.32;;
32760;SDS011;19126;47.472;7.850;2023-07-24T08:41:11;11.05;;;6.13;;
32760;SDS011;19126;47.472;7.850;2023-07-24T08:43:42;7.53;;;5.18;;
32760;SDS011;19126;47.472;7.850;2023-07-24T08:46:09;14.70;;;6.15;;
32760;SDS011;19126;47.472;7.850;2023-07-24T08:48:37;14.13;;;5.78;;
32760;SDS011;19126;47.472;7.850;2023-07-24T08:51:07;17.50;;;7.28;;
32760;SDS011;19126;47.472;7.850;2023-07-24T08:53:37;8.45;;;5.50;;
32760;SDS011;19126;47.472;7.850;2023-07-24T08:56:07;7.43;;;5.90;;
32760;SDS011;19126;47.472;7.850;2023-07-24T08:58:37;8.38;;;5.13;;
32760;SDS011;19126;47.472;7.850;2023-07-24T09:01:05;8.73;;;5.55;;
32760;SDS011;19126;47.472;7.850;2023-07-24T09:03:34;10.23;;;5.35;;
32760;SDS011;19126;47.472;7.850;2023-07-24T09:06:02;12.18;;;5.95;;
32760;SDS011;19126;47.472;7.850;2023-07-24T09:08:32;7.97;;;5.53;;
32760;SDS011;19126;47.472;7.850;2023-07-24T09:11:02;10.75;;;5.82;;
32760;SDS011;19126;47.472;7.850;2023-07-24T09:13:32;11.77;;;5.88;;
32760;SDS011;19126;47.472;7.850;2023-07-24T09:16:01;10.52;;;5.80;;
32760;SDS011;19126;47.472;7.850;2023-07-24T09:18:38;8.05;;;4.95;;
32760;SDS011;19126;47.472;7.850;2023-07-24T09:21:06;9.48;;;4.65;;
32760;SDS011;19126;47.472;7.850;2023-07-24T09:23:33;7.72;;;5.65;;
32760;SDS011;19126;47.472;7.850;2023-07-24T09:26:04;9.32;;;5.55;;
32760;SDS011;19126;47.472;7.850;2023-07-24T09:31:02;8.63;;;5.43;;
32760;SDS011;19126;47.472;7.850;2023-07-24T09:33:36;8.75;;;5.28;;
32760;SDS011;19126;47.472;7.850;2023-07-24T09:36:06;9.45;;;5.20;;
32760;SDS011;19126;47.472;7.850;2023-07-24T09:38:35;11.85;;;5.85;;
32760;SDS011;19126;47.472;7.850;2023-07-24T09:41:04;11.45;;;5.28;;
32760;SDS011;19126;47.472;7.850;2023-07-24T09:43:32;8.68;;;5.45;;
32760;SDS011;19126;47.472;7.850;2023-07-24T09:46:01;12.40;;;6.40;;
32760;SDS011;19126;47.472;7.850;2023-07-24T09:48:32;12.93;;;6.32;;
32760;SDS011;19126;47.472;7.850;2023-07-24T09:51:01;10.48;;;6.30;;
32760;SDS011;19126;47.472;7.850;2023-07-24T09:53:31;14.25;;;7.05;;
32760;SDS011;19126;47.472;7.850;2023-07-24T09:56:01;9.35;;;6.10;;
32760;SDS011;19126;47.472;7.850;2023-07-24T09:58:31;12.07;;;6.43;;
32760;SDS011;19126;47.472;7.850;2023-07-24T10:01:02;13.93;;;6.47;;
32760;SDS011;19126;47.472;7.850;2023-07-24T10:03:31;13.35;;;6.53;;
32760;SDS011;19126;47.472;7.850;2023-07-24T10:06:00;17.30;;;7.43;;
32760;SDS011;19126;47.472;7.850;2023-07-24T10:08:28;12.43;;;7.35;;
32760;SDS011;19126;47.472;7.850;2023-07-24T10:10:56;15.77;;;6.60;;
32760;SDS011;19126;47.472;7.850;2023-07-24T10:13:25;11.57;;;6.10;;
32760;SDS011;19126;47.472;7.850;2023-07-24T10:15:55;12.85;;;6.15;;
32760;SDS011;19126;47.472;7.850;2023-07-24T10:18:26;22.00;;;7.00;;
32760;SDS011;19126;47.472;7.850;2023-07-24T10:21:00;16.60;;;6.35;;
32760;SDS011;19126;47.472;7.850;2023-07-24T10:23:28;16.77;;;5.13;;
32760;SDS011;19126;47.472;7.850;2023-07-24T10:25:55;11.48;;;4.13;;
32760;SDS011;19126;47.472;7.850;2023-07-24T10:28:30;10.25;;;4.80;;
32760;SDS011;19126;47.472;7.850;2023-07-24T10:31:00;6.45;;;4.40;;
32760;SDS011;19126;47.472;7.850;2023-07-24T10:33:29;5.63;;;4.25;;
32760;SDS011;19126;47.472;7.850;2023-07-24T10:36:03;9.70;;;4.53;;
32760;SDS011;19126;47.472;7.850;2023-07-24T10:38:36;7.80;;;4.63;;
32760;SDS011;19126;47.472;7.850;2023-07-24T10:41:06;6.43;;;4.20;;
32760;SDS011;19126;47.472;7.850;2023-07-24T10:43:39;8.65;;;4.53;;
32760;SDS011;19126;47.472;7.850;2023-07-24T10:46:10;9.38;;;5.30;;
32760;SDS011;19126;47.472;7.850;2023-07-24T10:48:41;10.23;;;4.97;;
32760;SDS011;19126;47.472;7.850;2023-07-24T10:51:10;7.67;;;4.93;;
32760;SDS011;19126;47.472;7.850;2023-07-24T10:53:41;9.32;;;5.00;;
32760;SDS011;19126;47.472;7.850;2023-07-24T10:56:10;9.85;;;4.90;;
32760;SDS011;19126;47.472;7.850;2023-07-24T10:58:41;8.48;;;4.95;;
32760;SDS011;19126;47.472;7.850;2023-07-24T11:01:09;8.82;;;4.50;;
32760;SDS011;19126;47.472;7.850;2023-07-24T11:03:37;11.60;;;4.25;;
32760;SDS011;19126;47.472;7.850;2023-07-24T11:06:12;8.02;;;4.88;;
32760;SDS011;19126;47.472;7.850;2023-07-24T11:08:41;9.23;;;5.05;;
32760;SDS011;19126;47.472;7.850;2023-07-24T11:11:08;9.02;;;4.95;;
32760;SDS011;19126;47.472;7.850;2023-07-24T11:13:37;10.60;;;4.75;;
32760;SDS011;19126;47.472;7.850;2023-07-24T11:16:04;7.10;;;5.05;;
32760;SDS011;19126;47.472;7.850;2023-07-24T11:18:44;8.90;;;4.95;;
32760;SDS011;19126;47.472;7.850;2023-07-24T11:21:13;9.40;;;4.75;;
32760;SDS011;19126;47.472;7.850;2023-07-24T11:23:44;8.32;;;4.50;;
32760;SDS011;19126;47.472;7.850;2023-07-24T11:26:18;12.45;;;4.50;;
32760;SDS011;19126;47.472;7.850;2023-07-24T11:28:46;7.10;;;4.65;;
32760;SDS011;19126;47.472;7.850;2023-07-24T11:31:14;6.55;;;4.88;;
32760;SDS011;19126;47.472;7.850;2023-07-24T11:33:46;11.20;;;5.18;;
32760;SDS011;19126;47.472;7.850;2023-07-24T11:36:15;9.60;;;5.57;;
32760;SDS011;19126;47.472;7.850;2023-07-24T11:38:44;7.95;;;5.07;;
32760;SDS011;19126;47.472;7.850;2023-07-24T11:41:11;9.25;;;5.10;;
32760;SDS011;19126;47.472;7.850;2023-07-24T11:43:45;7.32;;;4.80;;
32760;SDS011;19126;47.472;7.850;2023-07-24T11:46:21;7.30;;;4.40;;
32760;SDS011;19126;47.472;7.850;2023-07-24T11:48:52;9.13;;;4.57;;
32760;SDS011;19126;47.472;7.850;2023-07-24T11:51:22;6.78;;;4.50;;
32760;SDS011;19126;47.472;7.850;2023-07-24T11:53:51;7.72;;;5.00;;
32760;SDS011;19126;47.472;7.850;2023-07-24T11:56:19;5.20;;;4.13;;
32760;SDS011;19126;47.472;7.850;2023-07-24T11:58:47;5.40;;;4.00;;
32760;SDS011;19126;47.472;7.850;2023-07-24T12:01:15;7.50;;;4.20;;
32760;SDS011;19126;47.472;7.850;2023-07-24T12:03:42;5.80;;;4.30;;
32760;SDS011;19126;47.472;7.850;2023-07-24T12:06:15;6.55;;;4.22;;
32760;SDS011;19126;47.472;7.850;2023-07-24T12:08:43;6.45;;;3.95;;
32760;SDS011;19126;47.472;7.850;2023-07-24T12:11:15;6.85;;;4.57;;
32760;SDS011;19126;47.472;7.850;2023-07-24T12:13:44;5.85;;;3.92;;
32760;SDS011;19126;47.472;7.850;2023-07-24T12:16:11;7.07;;;4.43;;
32760;SDS011;19126;47.472;7.850;2023-07-24T12:18:38;11.38;;;4.88;;
32760;SDS011;19126;47.472;7.850;2023-07-24T12:21:05;6.28;;;4.18;;
32760;SDS011;19126;47.472;7.850;2023-07-24T12:23:36;6.03;;;4.40;;
32760;SDS011;19126;47.472;7.850;2023-07-24T12:26:04;10.60;;;4.47;;
32760;SDS011;19126;47.472;7.850;2023-07-24T12:28:31;5.85;;;4.05;;
32760;SDS011;19126;47.472;7.850;2023-07-24T12:31:00;6.40;;;4.05;;
32760;SDS011;19126;47.472;7.850;2023-07-24T12:33:27;6.70;;;4.93;;
32760;SDS011;19126;47.472;7.850;2023-07-24T12:35:55;7.95;;;4.10;;
32760;SDS011;19126;47.472;7.850;2023-07-24T12:38:22;7.80;;;5.38;;
32760;SDS011;19126;47.472;7.850;2023-07-24T12:40:51;9.65;;;4.95;;
32760;SDS011;19126;47.472;7.850;2023-07-24T12:43:18;9.85;;;4.80;;
32760;SDS011;19126;47.472;7.850;2023-07-24T12:45:46;7.05;;;4.68;;
32760;SDS011;19126;47.472;7.850;2023-07-24T12:48:13;7.15;;;4.97;;
32760;SDS011;19126;47.472;7.850;2023-07-24T12:50:42;12.88;;;6.03;;
32760;SDS011;19126;47.472;7.850;2023-07-24T12:53:10;6.60;;;4.93;;
32760;SDS011;19126;47.472;7.850;2023-07-24T12:55:37;9.00;;;5.47;;
32760;SDS011;19126;47.472;7.850;2023-07-24T12:58:06;7.47;;;4.53;;
32760;SDS011;19126;47.472;7.850;2023-07-24T13:00:33;9.93;;;5.22;;
32760;SDS011;19126;47.472;7.850;2023-07-24T13:03:00;8.02;;;5.45;;
32760;SDS011;19126;47.472;7.850;2023-07-24T13:05:29;8.55;;;4.80;;
32760;SDS011;19126;47.472;7.850;2023-07-24T13:07:57;9.38;;;5.65;;
32760;SDS011;19126;47.472;7.850;2023-07-24T13:10:24;9.52;;;5.50;;
32760;SDS011;19126;47.472;7.850;2023-07-24T13:12:51;8.15;;;5.10;;
32760;SDS011;19126;47.472;7.850;2023-07-24T13:15:20;7.65;;;4.95;;
32760;SDS011;19126;47.472;7.850;2023-07-24T13:17:49;12.35;;;4.93;;
32760;SDS011;19126;47.472;7.850;2023-07-24T13:20:16;7.18;;;4.80;;
32760;SDS011;19126;47.472;7.850;2023-07-24T13:22:43;7.13;;;4.78;;
32760;SDS011;19126;47.472;7.850;2023-07-24T13:25:12;10.07;;;4.50;;
32760;SDS011;19126;47.472;7.850;2023-07-24T13:27:39;7.22;;;4.65;;
32760;SDS011;19126;47.472;7.850;2023-07-24T13:30:07;5.95;;;4.43;;
32760;SDS011;19126;47.472;7.850;2023-07-24T13:32:36;11.88;;;4.43;;
32760;SDS011;19126;47.472;7.850;2023-07-24T13:35:04;6.38;;;4.47;;
32760;SDS011;19126;47.472;7.850;2023-07-24T13:37:32;6.57;;;4.90;;
32760;SDS011;19126;47.472;7.850;2023-07-24T13:40:00;9.10;;;4.03;;
32760;SDS011;19126;47.472;7.850;2023-07-24T13:42:27;9.25;;;4.75;;
32760;SDS011;19126;47.472;7.850;2023-07-24T13:44:54;7.47;;;5.07;;
32760;SDS011;19126;47.472;7.850;2023-07-24T13:47:22;8.65;;;4.88;;
32760;SDS011;19126;47.472;7.850;2023-07-24T13:49:50;7.60;;;4.53;;
32760;SDS011;19126;47.472;7.850;2023-07-24T13:52:18;10.48;;;5.35;;
32760;SDS011;19126;47.472;7.850;2023-07-24T13:54:46;6.43;;;4.75;;
32760;SDS011;19126;47.472;7.850;2023-07-24T13:57:14;9.52;;;5.00;;
32760;SDS011;19126;47.472;7.850;2023-07-24T13:59:41;7.30;;;4.75;;
32760;SDS011;19126;47.472;7.850;2023-07-24T14:02:08;9.85;;;4.55;;
32760;SDS011;19126;47.472;7.850;2023-07-24T14:04:37;7.43;;;4.45;;
32760;SDS011;19126;47.472;7.850;2023-07-24T14:07:06;12.73;;;5.35;;
32760;SDS011;19126;47.472;7.850;2023-07-24T14:09:35;21.83;;;8.15;;
32760;SDS011;19126;47.472;7.850;2023-07-24T14:12:02;25.15;;;7.78;;
32760;SDS011;19126;47.472;7.850;2023-07-24T14:14:30;14.82;;;4.93;;
32760;SDS011;19126;47.472;7.850;2023-07-24T14:16:57;18.40;;;5.30;;
32760;SDS011;19126;47.472;7.850;2023-07-24T14:19:25;13.02;;;4.40;;
32760;SDS011;19126;47.472;7.850;2023-07-24T14:21:52;8.30;;;4.13;;
32760;SDS011;19126;47.472;7.850;2023-07-24T14:24:21;6.93;;;3.78;;
32760;SDS011;19126;47.472;7.850;2023-07-24T14:26:48;9.20;;;3.60;;
32760;SDS011;19126;47.472;7.850;2023-07-24T14:29:15;10.68;;;3.83;;
32760;SDS011;19126;47.472;7.850;2023-07-24T14:31:43;4.43;;;3.67;;
32760;SDS011;19126;47.472;7.850;2023-07-24T14:34:10;8.20;;;4.05;;
32760;SDS011;19126;47.472;7.850;2023-07-24T14:36:38;10.88;;;4.40;;
32760;SDS011;19126;47.472;7.850;2023-07-24T14:39:06;17.50;;;4.65;;
32760;SDS011;19126;47.472;7.850;2023-07-24T14:41:35;6.70;;;4.63;;
32760;SDS011;19126;47.472;7.850;2023-07-24T14:44:02;10.95;;;4.32;;